createdAt,value
2022-12-17T00:02:44.832Z,-0.83
2022-12-17T00:05:32.749Z,-0.84
2022-12-17T00:08:31.581Z,-0.84
2022-12-17T00:11:18.411Z,-0.83
2022-12-17T00:14:04.851Z,-0.79
2022-12-17T00:16:51.595Z,-0.77
2022-12-17T00:19:39.293Z,-0.76
2022-12-17T00:22:25.970Z,-0.71
2022-12-17T00:25:12.697Z,-0.69
2022-12-17T00:27:59.491Z,-0.68
2022-12-17T00:30:46.177Z,-0.67
2022-12-17T00:33:34.641Z,-0.67
2022-12-17T00:36:23.187Z,-0.69
2022-12-17T00:39:09.855Z,-0.68
2022-12-17T00:41:58.137Z,-0.66
2022-12-17T00:44:44.756Z,-0.66
2022-12-17T00:47:32.865Z,-0.65
2022-12-17T00:50:19.434Z,-0.63
2022-12-17T00:53:08.021Z,-0.66
2022-12-17T00:55:54.920Z,-0.71
2022-12-17T00:58:45.253Z,-0.73
2022-12-17T01:01:32.177Z,-0.73
2022-12-17T01:04:19.998Z,-0.78
2022-12-17T01:07:08.128Z,-0.84
2022-12-17T01:09:54.737Z,-0.85
2022-12-17T01:12:42.357Z,-0.83
2022-12-17T01:15:29.176Z,-0.81
2022-12-17T01:18:16.029Z,-0.78
2022-12-17T01:21:02.483Z,-0.79
2022-12-17T01:23:48.987Z,-0.81
2022-12-17T01:26:35.953Z,-0.81
2022-12-17T01:29:22.703Z,-0.80
2022-12-17T01:32:09.557Z,-0.78
2022-12-17T01:34:57.734Z,-0.77
2022-12-17T01:37:44.375Z,-0.77
2022-12-17T01:40:30.976Z,-0.81
2022-12-17T01:43:17.659Z,-0.86
2022-12-17T01:46:08.305Z,-0.90
2022-12-17T01:49:04.977Z,-0.89
2022-12-17T01:51:54.337Z,-0.92
2022-12-17T01:54:44.866Z,-0.94
2022-12-17T01:57:35.243Z,-0.94
2022-12-17T02:00:28.078Z,-0.99
2022-12-17T02:03:17.369Z,-1.05
2022-12-17T02:06:16.957Z,-1.07
2022-12-17T02:09:15.850Z,-1.09
2022-12-17T02:12:16.538Z,-1.13
2022-12-17T02:15:24.389Z,-1.12
2022-12-17T02:18:23.087Z,-1.12
2022-12-17T02:21:13.483Z,-1.18
2022-12-17T02:24:34.149Z,-1.20
2022-12-17T02:27:26.965Z,-1.21
2022-12-17T02:30:24.262Z,-1.20
2022-12-17T02:33:13.528Z,-1.21
2022-12-17T02:36:05.366Z,-1.26
2022-12-17T02:38:53.662Z,-1.27
2022-12-17T02:41:54.242Z,-1.28
2022-12-17T02:44:43.123Z,-1.31
2022-12-17T02:47:52.193Z,-1.32
2022-12-17T02:50:40.046Z,-1.35
2022-12-17T02:53:29.297Z,-1.39
2022-12-17T02:56:15.688Z,-1.42
2022-12-17T02:59:02.006Z,-1.41
2022-12-17T03:01:48.650Z,-1.41
2022-12-17T03:04:35.923Z,-1.45
2022-12-17T03:07:22.416Z,-1.51
2022-12-17T03:10:08.938Z,-1.56
2022-12-17T03:12:55.421Z,-1.60
2022-12-17T03:15:41.703Z,-1.66
2022-12-17T03:18:28.008Z,-1.73
2022-12-17T03:21:16.294Z,-1.74
2022-12-17T03:24:02.946Z,-1.73
2022-12-17T03:26:50.647Z,-1.74
2022-12-17T03:29:37.156Z,-1.78
2022-12-17T03:32:24.139Z,-1.88
2022-12-17T03:35:10.846Z,-1.96
2022-12-17T03:37:57.418Z,-2.01
2022-12-17T03:40:43.809Z,-2.06
2022-12-17T03:43:32.787Z,-2.08
2022-12-17T03:46:20.266Z,-2.09
2022-12-17T03:49:07.498Z,-2.13
2022-12-17T03:51:54.228Z,-2.15
2022-12-17T03:54:40.636Z,-2.18
2022-12-17T03:57:28.864Z,-2.20
2022-12-17T04:00:15.641Z,-2.23
2022-12-17T04:03:02.405Z,-2.23
2022-12-17T04:05:50.441Z,-2.22
2022-12-17T04:08:37.008Z,-2.25
2022-12-17T04:11:25.802Z,-2.28
2022-12-17T04:14:12.613Z,-2.30
2022-12-17T04:16:59.521Z,-2.29
2022-12-17T04:19:46.336Z,-2.31
2022-12-17T04:22:32.558Z,-2.30
2022-12-17T04:25:19.119Z,-2.28
2022-12-17T04:28:05.922Z,-2.28
2022-12-17T04:30:52.249Z,-2.28
2022-12-17T04:33:40.380Z,-2.25
2022-12-17T04:36:28.645Z,-2.20
2022-12-17T04:39:15.489Z,-2.20
2022-12-17T04:42:01.826Z,-2.18
2022-12-17T04:44:48.167Z,-2.20
2022-12-17T04:47:34.780Z,-2.21
2022-12-17T04:50:21.411Z,-2.19
2022-12-17T04:53:08.350Z,-2.17
2022-12-17T04:55:54.898Z,-2.19
2022-12-17T04:58:41.462Z,-2.24
2022-12-17T05:01:29.526Z,-2.32
2022-12-17T05:04:17.118Z,-2.36
2022-12-17T05:07:04.812Z,-2.37
2022-12-17T05:09:51.644Z,-2.37
2022-12-17T05:12:38.313Z,-2.40
2022-12-17T05:15:26.834Z,-2.41
2022-12-17T05:18:13.658Z,-2.41
2022-12-17T05:21:01.802Z,-2.45
2022-12-17T05:23:48.250Z,-2.47
2022-12-17T05:26:44.931Z,-2.51
2022-12-17T05:29:33.852Z,-2.55
2022-12-17T05:32:20.672Z,-2.58
2022-12-17T05:35:07.224Z,-2.62
2022-12-17T05:37:53.838Z,-2.66
2022-12-17T05:40:41.842Z,-2.65
2022-12-17T05:43:31.929Z,-2.64
2022-12-17T05:46:21.059Z,-2.63
2022-12-17T05:49:09.074Z,-2.64
2022-12-17T05:51:55.599Z,-2.66
2022-12-17T05:54:42.093Z,-2.68
2022-12-17T05:57:28.595Z,-2.69
2022-12-17T06:00:15.251Z,-2.68
2022-12-17T06:03:02.125Z,-2.67
2022-12-17T06:05:49.741Z,-2.66
2022-12-17T06:08:36.684Z,-2.64
2022-12-17T06:11:23.205Z,-2.63
2022-12-17T06:14:09.679Z,-2.67
2022-12-17T06:16:58.235Z,-2.72
2022-12-17T06:19:45.112Z,-2.72
2022-12-17T06:22:32.017Z,-2.73
2022-12-17T06:25:18.761Z,-2.74
2022-12-17T06:28:05.197Z,-2.76
2022-12-17T06:30:52.346Z,-2.78
2022-12-17T06:33:38.947Z,-2.81
2022-12-17T06:36:27.643Z,-2.83
2022-12-17T06:39:14.308Z,-2.85
2022-12-17T06:42:04.583Z,-2.87
2022-12-17T06:44:52.983Z,-2.87
2022-12-17T06:47:39.936Z,-2.84
2022-12-17T06:50:28.313Z,-2.81
2022-12-17T06:53:20.871Z,-2.80
2022-12-17T06:56:10.859Z,-2.83
2022-12-17T06:58:57.487Z,-2.85
2022-12-17T07:01:44.786Z,-2.86
2022-12-17T07:04:32.746Z,-2.88
2022-12-17T07:07:19.355Z,-2.88
2022-12-17T07:10:09.326Z,-2.92
2022-12-17T07:13:01.569Z,-2.95
2022-12-17T07:15:47.912Z,-3.01
2022-12-17T07:18:35.859Z,-3.05
2022-12-17T07:21:22.477Z,-3.11
2022-12-17T07:24:09.362Z,-3.16
2022-12-17T07:26:56.000Z,-3.19
2022-12-17T07:29:44.214Z,-3.19
2022-12-17T07:32:31.046Z,-3.20
2022-12-17T07:35:17.714Z,-3.24
2022-12-17T07:38:05.743Z,-3.24
2022-12-17T07:40:53.147Z,-3.23
2022-12-17T07:43:40.133Z,-3.22
2022-12-17T07:46:27.951Z,-3.23
2022-12-17T07:49:14.494Z,-3.24
2022-12-17T07:52:00.883Z,-3.25
2022-12-17T07:54:47.294Z,-3.29
2022-12-17T07:57:34.331Z,-3.29
2022-12-17T08:00:23.682Z,-3.30
2022-12-17T08:03:16.983Z,-3.29
2022-12-17T08:06:07.445Z,-3.27
2022-12-17T08:08:54.119Z,-3.27
2022-12-17T08:11:40.700Z,-3.27
2022-12-17T08:14:27.459Z,-3.24
2022-12-17T08:17:14.314Z,-3.22
2022-12-17T08:20:01.522Z,-3.24
2022-12-17T08:22:48.322Z,-3.23
2022-12-17T08:25:35.214Z,-3.20
2022-12-17T08:28:48.942Z,-3.18
2022-12-17T08:31:27.870Z,-3.20
2022-12-17T08:34:14.246Z,-3.17
2022-12-17T08:37:00.872Z,-3.14
2022-12-17T08:39:47.563Z,-3.10
2022-12-17T08:42:34.461Z,-3.10
2022-12-17T08:45:21.412Z,-3.12
2022-12-17T08:48:08.303Z,-3.14
2022-12-17T08:50:55.179Z,-3.09
2022-12-17T08:53:43.141Z,-3.07
2022-12-17T08:56:31.362Z,-3.07
2022-12-17T08:59:17.686Z,-3.12
2022-12-17T09:02:04.560Z,-3.15
2022-12-17T09:04:53.638Z,-3.15
2022-12-17T09:07:39.995Z,-3.17
2022-12-17T09:10:27.725Z,-3.18
2022-12-17T09:13:16.501Z,-3.18
2022-12-17T09:16:02.908Z,-3.18
2022-12-17T09:18:49.556Z,-3.20
2022-12-17T09:21:36.082Z,-3.23
2022-12-17T09:24:24.854Z,-3.23
2022-12-17T09:27:13.969Z,-3.24
2022-12-17T09:30:00.602Z,-3.24
2022-12-17T09:32:51.266Z,-3.23
2022-12-17T09:35:37.949Z,-3.25
2022-12-17T09:38:24.514Z,-3.22
2022-12-17T09:41:11.623Z,-3.15
2022-12-17T09:44:01.501Z,-3.10
2022-12-17T09:47:20.382Z,-3.07
2022-12-17T09:50:07.862Z,-3.06
2022-12-17T09:53:00.911Z,-3.08
2022-12-17T09:55:59.217Z,-3.10
2022-12-17T09:59:00.152Z,-3.13
2022-12-17T10:01:53.146Z,-3.14
2022-12-17T10:04:53.097Z,-3.14
2022-12-17T10:07:45.979Z,-3.11
2022-12-17T10:10:41.096Z,-3.05
2022-12-17T10:13:39.654Z,-2.96
2022-12-17T10:16:55.200Z,-2.87
2022-12-17T10:19:55.051Z,-2.82
2022-12-17T10:23:05.474Z,-2.76
2022-12-17T10:25:55.096Z,-2.73
2022-12-17T10:28:44.620Z,-2.65
2022-12-17T10:31:45.851Z,-2.60
2022-12-17T10:34:38.881Z,-2.56
2022-12-17T10:37:39.605Z,-2.55
2022-12-17T10:40:52.696Z,-2.51
2022-12-17T10:43:58.333Z,-2.46
2022-12-17T10:46:51.287Z,-2.36
2022-12-17T10:49:43.277Z,-2.29
2022-12-17T10:52:51.589Z,-2.34
2022-12-17T10:55:50.205Z,-2.39
2022-12-17T10:58:49.335Z,-2.50
2022-12-17T11:01:45.611Z,-2.59
2022-12-17T11:04:43.395Z,-2.60
2022-12-17T11:07:39.982Z,-2.60
2022-12-17T11:10:38.939Z,-2.61
2022-12-17T11:13:51.475Z,-2.61
2022-12-17T11:16:51.186Z,-2.58
2022-12-17T11:20:18.275Z,-2.57
2022-12-17T11:23:11.374Z,-2.59
2022-12-17T11:26:11.119Z,-2.64
2022-12-17T11:29:00.577Z,-2.72
2022-12-17T11:31:57.227Z,-2.74
2022-12-17T11:34:43.735Z,-2.73
2022-12-17T11:37:48.077Z,-2.71
2022-12-17T11:40:57.796Z,-2.78
2022-12-17T11:44:00.102Z,-2.86
2022-12-17T11:47:04.142Z,-2.92
2022-12-17T11:50:11.909Z,-3.01
2022-12-17T11:53:07.800Z,-3.12
2022-12-17T11:56:24.284Z,-3.15
2022-12-17T11:59:17.415Z,-3.12
2022-12-17T12:02:29.011Z,-3.15
2022-12-17T12:06:10.534Z,-3.14
2022-12-17T12:09:07.324Z,-3.15
2022-12-17T12:12:26.035Z,-3.18
2022-12-17T12:15:25.234Z,-3.15
2022-12-17T12:18:28.288Z,-3.17
2022-12-17T12:21:42.992Z,-3.23
2022-12-17T12:24:41.987Z,-3.23
2022-12-17T12:27:43.184Z,-3.23
2022-12-17T12:30:40.740Z,-3.22
2022-12-17T12:34:04.943Z,-3.18
2022-12-17T12:36:54.035Z,-3.15
2022-12-17T12:39:56.818Z,-3.19
2022-12-17T12:43:04.632Z,-3.25
2022-12-17T12:46:10.130Z,-3.30
2022-12-17T12:49:19.110Z,-3.29
2022-12-17T12:52:09.944Z,-3.28
2022-12-17T12:55:07.092Z,-3.29
2022-12-17T12:58:00.624Z,-3.29
2022-12-17T13:00:49.082Z,-3.25
2022-12-17T13:03:45.057Z,-3.26
2022-12-17T13:06:35.124Z,-3.28
2022-12-17T13:09:34.151Z,-3.30
2022-12-17T13:12:02.930Z,-3.28
2022-12-17T13:14:46.451Z,-3.24
2022-12-17T13:17:14.456Z,-3.24
2022-12-17T13:19:58.969Z,-3.25
2022-12-17T13:22:33.682Z,-3.24
2022-12-17T13:25:20.646Z,-3.23
2022-12-17T13:27:49.625Z,-3.22
2022-12-17T13:30:24.242Z,-3.25
2022-12-17T13:33:19.528Z,-3.29
2022-12-17T13:35:59.356Z,-3.29
2022-12-17T13:38:33.870Z,-3.29
2022-12-17T13:41:11.471Z,-3.30
2022-12-17T13:43:47.197Z,-3.30
2022-12-17T13:46:27.047Z,-3.29
2022-12-17T13:49:01.209Z,-3.24
2022-12-17T13:51:32.253Z,-3.22
2022-12-17T13:54:02.730Z,-3.21
2022-12-17T13:56:34.061Z,-3.21
2022-12-17T13:59:09.295Z,-3.25
2022-12-17T14:01:46.661Z,-3.29
2022-12-17T14:04:25.265Z,-3.34
2022-12-17T14:06:56.820Z,-3.37
2022-12-17T14:09:40.668Z,-3.36
2022-12-17T14:12:22.315Z,-3.33
2022-12-17T14:14:58.315Z,-3.30
2022-12-17T14:17:30.989Z,-3.26
2022-12-17T14:20:05.583Z,-3.26
2022-12-17T14:22:39.032Z,-3.28
2022-12-17T14:25:32.338Z,-3.26
2022-12-17T14:28:05.255Z,-3.26
2022-12-17T14:30:33.059Z,-3.25
2022-12-17T14:33:01.097Z,-3.25
2022-12-17T14:35:39.256Z,-3.29
2022-12-17T14:38:36.909Z,-3.28
2022-12-17T14:41:32.240Z,-3.27
2022-12-17T14:44:03.110Z,-3.30
2022-12-17T14:46:33.800Z,-3.30
2022-12-17T14:49:05.962Z,-3.34
2022-12-17T14:51:39.095Z,-3.38
2022-12-17T14:54:33.288Z,-3.42
2022-12-17T14:57:20.301Z,-3.45
2022-12-17T14:59:50.757Z,-3.49
2022-12-17T15:02:29.937Z,-3.52
2022-12-17T15:05:03.044Z,-3.52
2022-12-17T15:07:33.251Z,-3.51
2022-12-17T15:10:01.130Z,-3.51
2022-12-17T15:12:32.105Z,-3.50
2022-12-17T15:14:59.996Z,-3.50
2022-12-17T15:17:27.838Z,-3.52
2022-12-17T15:19:56.390Z,-3.56
2022-12-17T15:22:25.683Z,-3.64
2022-12-17T15:24:53.522Z,-3.68
2022-12-17T15:27:21.337Z,-3.72
2022-12-17T15:29:51.002Z,-3.70
2022-12-17T15:32:22.599Z,-3.71
2022-12-17T15:34:50.746Z,-3.73
2022-12-17T15:37:25.518Z,-3.73
2022-12-17T15:39:57.813Z,-3.72
2022-12-17T15:42:46.923Z,-3.75
2022-12-17T15:45:14.837Z,-3.71
2022-12-17T15:47:42.682Z,-3.71
2022-12-17T15:50:10.781Z,-3.74
2022-12-17T15:52:38.658Z,-3.75
2022-12-17T15:55:07.334Z,-3.75
2022-12-17T15:57:36.728Z,-3.77
2022-12-17T16:00:05.204Z,-3.80
2022-12-17T16:02:33.353Z,-3.83
2022-12-17T16:05:01.772Z,-3.85
2022-12-17T16:07:29.698Z,-3.84
2022-12-17T16:10:04.527Z,-3.85
2022-12-17T16:12:33.326Z,-3.85
2022-12-17T16:15:01.812Z,-3.86
2022-12-17T16:17:29.793Z,-3.87
2022-12-17T16:19:58.128Z,-3.87
2022-12-17T16:22:26.179Z,-3.86
2022-12-17T16:24:54.257Z,-3.86
2022-12-17T16:27:22.196Z,-3.89
2022-12-17T16:29:50.518Z,-3.92
2022-12-17T16:32:18.461Z,-3.91
2022-12-17T16:34:47.047Z,-3.90
2022-12-17T16:37:15.109Z,-3.88
2022-12-17T16:39:43.799Z,-3.85
2022-12-17T16:42:12.031Z,-3.81
2022-12-17T16:44:39.934Z,-3.78
2022-12-17T16:47:07.882Z,-3.76
2022-12-17T16:49:35.766Z,-3.74
2022-12-17T16:52:03.728Z,-3.75
2022-12-17T16:54:32.838Z,-3.79
2022-12-17T16:57:02.270Z,-3.81
2022-12-17T16:59:31.026Z,-3.85
2022-12-17T17:02:00.523Z,-3.87
2022-12-17T17:04:28.719Z,-3.90
2022-12-17T17:06:57.581Z,-3.92
2022-12-17T17:09:25.987Z,-3.97
2022-12-17T17:11:59.286Z,-3.99
2022-12-17T17:14:28.002Z,-4.00
2022-12-17T17:16:56.369Z,-4.01
2022-12-17T17:19:24.207Z,-4.01
2022-12-17T17:21:54.265Z,-4.07
2022-12-17T17:24:25.847Z,-4.11
2022-12-17T17:26:55.203Z,-4.14
2022-12-17T17:29:23.191Z,-4.15
2022-12-17T17:34:39.815Z,-4.16
2022-12-17T17:37:08.253Z,-4.18
2022-12-17T17:39:36.441Z,-4.19
2022-12-17T17:42:05.262Z,-4.20
2022-12-17T17:44:33.522Z,-4.21
2022-12-17T17:47:01.665Z,-4.23
2022-12-17T17:49:29.628Z,-4.25
2022-12-17T17:52:13.323Z,-4.26
2022-12-17T17:54:42.681Z,-4.28
2022-12-17T17:57:11.876Z,-4.29
2022-12-17T17:59:39.885Z,-4.27
2022-12-17T18:02:10.855Z,-4.26
2022-12-17T18:04:40.261Z,-4.30
2022-12-17T18:07:24.887Z,-4.30
2022-12-17T18:09:54.129Z,-4.30
2022-12-17T18:12:41.732Z,-4.30
2022-12-17T18:15:15.285Z,-4.30
2022-12-17T18:17:46.819Z,-4.30
2022-12-17T18:20:16.098Z,-4.31
2022-12-17T18:22:46.491Z,-4.31
2022-12-17T18:25:17.863Z,-4.31
2022-12-17T18:27:48.348Z,-4.32
2022-12-17T18:30:16.478Z,-4.35
2022-12-17T18:32:50.384Z,-4.35
2022-12-17T18:35:19.011Z,-4.34
2022-12-17T18:37:46.918Z,-4.34
2022-12-17T18:40:14.883Z,-4.34
2022-12-17T18:43:01.725Z,-4.33
2022-12-17T18:45:30.951Z,-4.32
2022-12-17T18:47:58.880Z,-4.31
2022-12-17T18:50:26.982Z,-4.30
2022-12-17T18:52:54.837Z,-4.30
2022-12-17T18:55:22.679Z,-4.32
2022-12-17T18:57:50.501Z,-4.32
2022-12-17T19:00:18.627Z,-4.31
2022-12-17T19:02:46.885Z,-4.29
2022-12-17T19:05:15.780Z,-4.31
2022-12-17T19:07:43.802Z,-4.31
2022-12-17T19:10:11.775Z,-4.33
2022-12-17T19:12:39.689Z,-4.34
2022-12-17T19:15:09.005Z,-4.35
2022-12-17T19:17:36.922Z,-4.34
2022-12-17T19:20:05.741Z,-4.34
2022-12-17T19:22:33.696Z,-4.37
2022-12-17T19:25:01.552Z,-4.38
2022-12-17T19:27:29.377Z,-4.39
2022-12-17T19:29:57.305Z,-4.39
2022-12-17T19:32:26.014Z,-4.39
2022-12-17T19:34:53.853Z,-4.39
2022-12-17T19:37:21.879Z,-4.39
2022-12-17T19:39:50.033Z,-4.39
2022-12-17T19:42:33.459Z,-4.38
2022-12-17T19:45:05.517Z,-4.37
2022-12-17T19:47:33.459Z,-4.37
2022-12-17T19:50:01.320Z,-4.38
2022-12-17T19:52:29.184Z,-4.40
2022-12-17T19:54:58.201Z,-4.39
2022-12-17T19:57:26.023Z,-4.40
2022-12-17T19:59:53.882Z,-4.41
2022-12-17T20:02:21.861Z,-4.40
2022-12-17T20:04:51.319Z,-4.39
2022-12-17T20:07:19.191Z,-4.38
2022-12-17T20:09:47.059Z,-4.37
2022-12-17T20:12:14.958Z,-4.39
2022-12-17T20:14:42.806Z,-4.40
2022-12-17T20:17:10.739Z,-4.40
2022-12-17T20:19:38.813Z,-4.41
2022-12-17T20:22:07.004Z,-4.43
2022-12-17T20:24:35.161Z,-4.42
2022-12-17T20:27:04.291Z,-4.43
2022-12-17T20:29:32.122Z,-4.44
2022-12-17T20:32:00.379Z,-4.44
2022-12-17T20:34:28.370Z,-4.44
2022-12-17T20:36:56.245Z,-4.45
2022-12-17T20:39:27.417Z,-4.46
2022-12-17T20:41:57.264Z,-4.46
2022-12-17T20:44:25.407Z,-4.48
2022-12-17T20:46:53.416Z,-4.49
2022-12-17T20:49:21.864Z,-4.50
2022-12-17T20:51:50.292Z,-4.50
2022-12-17T20:54:18.207Z,-4.51
2022-12-17T20:56:46.582Z,-4.50
2022-12-17T20:59:18.047Z,-4.50
2022-12-17T21:01:50.382Z,-4.52
2022-12-17T21:04:22.945Z,-4.53
2022-12-17T21:06:51.736Z,-4.54
2022-12-17T21:09:22.645Z,-4.56
2022-12-17T21:11:51.301Z,-4.62
2022-12-17T21:14:19.679Z,-4.66
2022-12-17T21:16:48.257Z,-4.70
2022-12-17T21:19:19.149Z,-4.74
2022-12-17T21:21:47.413Z,-4.76
2022-12-17T21:24:15.952Z,-4.76
2022-12-17T21:26:46.118Z,-4.78
2022-12-17T21:29:14.902Z,-4.79
2022-12-17T21:31:48.264Z,-4.79
2022-12-17T21:34:21.926Z,-4.81
2022-12-17T21:36:51.092Z,-4.85
2022-12-17T21:39:20.008Z,-4.89
2022-12-17T21:42:07.793Z,-4.91
2022-12-17T21:44:37.108Z,-4.92
2022-12-17T21:47:05.562Z,-4.94
2022-12-17T21:49:34.076Z,-4.98
2022-12-17T21:52:03.143Z,-4.99
2022-12-17T21:54:31.416Z,-5.00
2022-12-17T21:56:59.230Z,-5.03
2022-12-17T21:59:27.353Z,-5.09
2022-12-17T22:01:57.670Z,-5.13
2022-12-17T22:04:26.891Z,-5.16
2022-12-17T22:07:01.599Z,-5.20
2022-12-17T22:09:56.969Z,-5.23
2022-12-17T22:12:43.780Z,-5.24
2022-12-17T22:15:13.005Z,-5.25
2022-12-17T22:17:42.726Z,-5.24
2022-12-17T22:20:11.980Z,-5.24
2022-12-17T22:22:39.931Z,-5.24
2022-12-17T22:25:11.368Z,-5.25
2022-12-17T22:27:41.405Z,-5.29
2022-12-17T22:30:33.799Z,-5.31
2022-12-17T22:33:12.353Z,-5.34
2022-12-17T22:37:57.159Z,-5.36
2022-12-17T22:42:18.738Z,-5.37
2022-12-17T22:44:45.479Z,-5.39
2022-12-17T22:44:51.495Z,-5.39
2022-12-17T22:47:22.650Z,-5.40
2022-12-17T22:49:50.718Z,-5.41
2022-12-17T22:52:20.199Z,-5.42
2022-12-17T22:54:49.380Z,-5.41
2022-12-17T22:57:35.813Z,-5.38
2022-12-17T23:00:23.257Z,-5.37
2022-12-17T23:02:54.222Z,-5.37
2022-12-17T23:05:24.030Z,-5.34
2022-12-17T23:07:52.964Z,-5.32
2022-12-17T23:10:22.220Z,-5.33
2022-12-17T23:12:56.459Z,-5.34
2022-12-17T23:15:28.572Z,-5.31
2022-12-17T23:17:59.119Z,-5.29
2022-12-17T23:20:29.524Z,-5.27
2022-12-17T23:22:57.704Z,-5.25
2022-12-17T23:25:26.579Z,-5.23
2022-12-17T23:27:54.781Z,-5.21
2022-12-17T23:30:22.998Z,-5.22
2022-12-17T23:32:51.926Z,-5.19
2022-12-17T23:35:20.314Z,-5.17
2022-12-17T23:37:49.751Z,-5.17
2022-12-17T23:40:17.860Z,-5.15
2022-12-17T23:42:45.849Z,-5.16
2022-12-17T23:45:14.236Z,-5.18
2022-12-17T23:47:42.300Z,-5.17
2022-12-17T23:50:11.998Z,-5.16
2022-12-17T23:52:40.076Z,-5.17
2022-12-17T23:55:11.949Z,-5.17
2022-12-17T23:57:40.412Z,-5.18
